Time;durP1;ratioP1;P1;durP2;ratioP2;P2;SDS_P1;SDS_P2;PMS_P1;PMS_P2;Temp;Humidity;BMP_temperature;BMP_pressure;BME280_temperature;BME280_humidity;BME280_pressure;Samples;Min_cycle;Max_cycle;Signal;HPM_P1;HPM_P2
2023/08/22 04:02:59;;;;;;;2.20;2.00;;;19.70;97.30;;;;;;4946614;28;20548;-69
2023/08/22 04:05:25;;;;;;;2.20;2.03;;;19.70;97.30;;;;;;4947417;28;20439;-69
2023/08/22 04:07:51;;;;;;;1.70;1.40;;;19.70;97.30;;;;;;4966205;28;20969;-70
2023/08/22 04:10:18;;;;;;;5.90;2.83;;;19.70;97.30;;;;;;4963323;28;20431;-69
2023/08/22 04:12:44;;;;;;;2.33;1.60;;;19.60;97.30;;;;;;4947944;28;20473;-70
2023/08/22 04:15:10;;;;;;;2.23;1.73;;;19.60;97.30;;;;;;4951191;28;20893;-70
2023/08/22 04:17:36;;;;;;;1.50;1.30;;;19.60;97.30;;;;;;4950247;28;20187;-67
2023/08/22 04:20:03;;;;;;;2.77;2.47;;;19.60;97.30;;;;;;4957740;28;20514;-69
2023/08/22 04:22:30;;;;;;;2.90;1.87;;;19.50;97.30;;;;;;4962853;28;20211;-69
2023/08/22 04:24:56;;;;;;;1.80;1.80;;;19.50;97.30;;;;;;4950492;28;20453;-69
2023/08/22 04:27:22;;;;;;;1.30;1.20;;;19.50;97.30;;;;;;4950733;28;20463;-69
2023/08/22 04:29:48;;;;;;;2.47;1.83;;;19.40;97.30;;;;;;4951008;28;20434;-69
2023/08/22 04:32:14;;;;;;;6.83;1.80;;;19.40;97.30;;;;;;4947371;28;20474;-68
2023/08/22 04:34:39;;;;;;;3.87;2.03;;;19.40;97.30;;;;;;4950877;28;20187;-68
2023/08/22 04:37:05;;;;;;;1.67;1.57;;;19.40;97.30;;;;;;4949238;28;20191;-69
2023/08/22 04:39:30;;;;;;;3.23;1.23;;;19.40;97.30;;;;;;4959104;28;20183;-69
2023/08/22 04:41:56;;;;;;;1.57;1.50;;;19.40;97.30;;;;;;4949755;28;20690;-69
2023/08/22 04:44:21;;;;;;;2.70;1.73;;;19.40;97.30;;;;;;4950339;28;20735;-68
2023/08/22 04:46:47;;;;;;;1.90;1.80;;;19.40;97.30;;;;;;4950620;28;20556;-68
2023/08/22 04:49:12;;;;;;;4.33;2.60;;;19.40;97.30;;;;;;4960518;28;20194;-68
2023/08/22 04:51:38;;;;;;;4.63;1.97;;;19.40;97.30;;;;;;4972343;28;20200;-68
2023/08/22 04:54:04;;;;;;;1.57;1.30;;;19.40;97.30;;;;;;4964813;28;20550;-69
2023/08/22 04:56:29;;;;;;;1.50;1.40;;;19.40;97.30;;;;;;4947471;28;20631;-68
2023/08/22 04:58:55;;;;;;;1.40;1.33;;;19.40;97.30;;;;;;4946397;28;20659;-69
2023/08/22 05:01:20;;;;;;;5.10;2.60;;;19.40;97.30;;;;;;4946774;28;20687;-68
2023/08/22 05:03:46;;;;;;;3.57;1.83;;;19.40;97.30;;;;;;4949826;28;20663;-68
2023/08/22 05:06:12;;;;;;;1.40;1.30;;;19.40;97.30;;;;;;4948628;28;20291;-68
2023/08/22 05:08:38;;;;;;;3.17;2.33;;;19.40;97.30;;;;;;4951217;28;20506;-69
2023/08/22 05:11:03;;;;;;;2.23;1.57;;;19.40;97.30;;;;;;4950471;28;20203;-69
2023/08/22 05:13:29;;;;;;;2.90;2.13;;;19.40;97.30;;;;;;4951303;28;20207;-69
2023/08/22 05:15:55;;;;;;;4.77;1.63;;;19.40;97.30;;;;;;4947855;28;20230;-66
2023/08/22 05:18:20;;;;;;;3.17;1.30;;;19.40;97.30;;;;;;4950853;28;20198;-68
2023/08/22 05:20:51;;;;;;;1.77;1.67;;;19.50;97.30;;;;;;4970393;28;20701;-68
2023/08/22 05:23:17;;;;;;;1.90;1.23;;;19.50;97.30;;;;;;4950276;28;21006;-68
2023/08/22 05:25:42;;;;;;;2.60;1.30;;;19.50;97.30;;;;;;4945977;28;20439;-67
2023/08/22 05:28:08;;;;;;;2.47;2.27;;;19.50;97.30;;;;;;4939044;28;20179;-68
2023/08/22 05:30:37;;;;;;;2.27;2.00;;;19.50;97.30;;;;;;4952265;28;20228;-68
2023/08/22 05:33:03;;;;;;;1.80;1.70;;;19.60;97.30;;;;;;4953328;28;20179;-68
2023/08/22 05:35:29;;;;;;;1.47;1.37;;;19.60;97.30;;;;;;4948460;28;20942;-68
2023/08/22 05:37:54;;;;;;;1.47;1.40;;;19.60;97.30;;;;;;4949995;28;20562;-69
2023/08/22 05:40:20;;;;;;;2.50;1.53;;;19.70;97.30;;;;;;4949838;28;20182;-68
2023/08/22 05:42:46;;;;;;;1.53;1.43;;;19.70;97.30;;;;;;4955340;28;20480;-68
2023/08/22 05:45:12;;;;;;;1.77;1.67;;;19.70;97.30;;;;;;4952023;28;20198;-69
2023/08/22 05:47:37;;;;;;;2.27;2.07;;;19.70;97.30;;;;;;4950329;28;20191;-69
2023/08/22 05:50:06;;;;;;;1.80;1.70;;;19.80;97.30;;;;;;4947707;28;20566;-68
2023/08/22 05:52:32;;;;;;;3.70;2.30;;;19.80;97.30;;;;;;4949733;28;20430;-68
2023/08/22 05:54:57;;;;;;;1.83;1.80;;;19.80;97.30;;;;;;4947053;28;20442;-68
2023/08/22 05:57:23;;;;;;;2.10;1.80;;;19.80;97.30;;;;;;4948674;28;20242;-68
2023/08/22 05:59:49;;;;;;;1.20;1.10;;;19.90;97.30;;;;;;4949233;28;20187;-68
2023/08/22 06:02:15;;;;;;;2.77;1.80;;;19.90;97.30;;;;;;4949481;28;20274;-67
2023/08/22 06:04:41;;;;;;;1.80;1.53;;;20.00;97.30;;;;;;4950376;28;20823;-69
2023/08/22 06:07:06;;;;;;;3.77;2.70;;;20.00;97.30;;;;;;4947809;28;20522;-68
2023/08/22 06:09:32;;;;;;;2.67;2.47;;;20.10;97.30;;;;;;4950045;28;20702;-67
2023/08/22 06:11:57;;;;;;;2.63;2.30;;;20.10;97.30;;;;;;4964522;28;20218;-69
2023/08/22 06:14:23;;;;;;;4.27;2.67;;;20.20;97.30;;;;;;4963116;28;20193;-69
2023/08/22 06:16:49;;;;;;;3.17;2.40;;;20.20;97.30;;;;;;4950954;28;20206;-68
2023/08/22 06:19:14;;;;;;;1.77;1.70;;;20.30;97.30;;;;;;4949916;28;20219;-68
2023/08/22 06:21:40;;;;;;;3.27;2.13;;;20.40;97.30;;;;;;4959994;28;20261;-67
2023/08/22 06:24:06;;;;;;;2.37;2.13;;;20.40;97.30;;;;;;4960237;28;20187;-68
2023/08/22 06:26:31;;;;;;;6.50;4.03;;;20.50;97.30;;;;;;4952108;28;20195;-69
2023/08/22 06:28:57;;;;;;;9.10;2.53;;;20.50;97.30;;;;;;4967449;28;21037;-69
2023/08/22 06:31:23;;;;;;;1.60;1.50;;;20.60;97.30;;;;;;4953425;28;20203;-68
2023/08/22 06:33:49;;;;;;;1.90;1.80;;;20.70;97.30;;;;;;4952221;28;20517;-67
2023/08/22 06:36:15;;;;;;;3.57;3.37;;;20.80;97.30;;;;;;4967111;28;20205;-68
2023/08/22 06:38:40;;;;;;;5.70;3.90;;;20.80;97.30;;;;;;4961873;28;20182;-68
2023/08/22 06:41:07;;;;;;;1.50;1.50;;;20.90;97.30;;;;;;4960281;28;20712;-68
2023/08/22 06:43:33;;;;;;;2.80;1.97;;;21.00;97.30;;;;;;4971045;28;20195;-68
2023/08/22 06:45:59;;;;;;;4.10;1.83;;;21.10;97.30;;;;;;4946985;28;20859;-69
2023/08/22 06:48:29;;;;;;;2.97;2.53;;;21.10;97.30;;;;;;4953030;28;20274;-69
2023/08/22 06:50:55;;;;;;;4.83;2.13;;;21.20;97.30;;;;;;4948643;28;20684;-68
2023/08/22 06:53:20;;;;;;;5.77;2.70;;;21.30;97.30;;;;;;4951856;28;20468;-69
2023/08/22 06:55:46;;;;;;;7.83;2.23;;;21.40;97.30;;;;;;4952657;28;20179;-69
2023/08/22 06:58:13;;;;;;;2.70;1.80;;;21.40;97.30;;;;;;4952910;28;20435;-69
2023/08/22 07:00:38;;;;;;;6.50;1.80;;;21.40;97.30;;;;;;4949097;28;20458;-68
2023/08/22 07:03:04;;;;;;;2.70;2.40;;;21.50;97.30;;;;;;4951811;28;20438;-67
2023/08/22 07:05:30;;;;;;;4.57;2.60;;;21.50;97.30;;;;;;4956624;28;20222;-68
2023/08/22 07:07:56;;;;;;;11.40;2.33;;;21.60;97.30;;;;;;4976698;28;20573;-68
2023/08/22 07:10:22;;;;;;;2.70;1.80;;;21.70;97.30;;;;;;4958351;28;20199;-68
2023/08/22 07:12:47;;;;;;;3.60;2.27;;;21.70;97.30;;;;;;4973332;28;20429;-68
2023/08/22 07:15:13;;;;;;;3.37;3.17;;;21.80;97.30;;;;;;4954135;28;20191;-68
2023/08/22 07:17:39;;;;;;;3.77;2.70;;;21.80;97.30;;;;;;4951251;28;20217;-67
2023/08/22 07:20:05;;;;;;;6.10;3.93;;;21.90;97.30;;;;;;4954910;28;20262;-67
2023/08/22 07:22:32;;;;;;;5.20;2.90;;;22.00;97.30;;;;;;4951419;28;20190;-67
2023/08/22 07:24:58;;;;;;;1.67;1.60;;;22.00;97.30;;;;;;4950566;28;20951;-69
2023/08/22 07:27:23;;;;;;;7.23;2.17;;;22.10;97.30;;;;;;4951025;28;20450;-67
2023/08/22 07:29:49;;;;;;;4.10;3.10;;;22.10;97.30;;;;;;4951378;28;20651;-68
2023/08/22 07:32:15;;;;;;;5.37;2.70;;;22.20;97.30;;;;;;4950710;28;20547;-67
2023/08/22 07:34:40;;;;;;;6.10;2.73;;;22.30;97.30;;;;;;4950186;28;20234;-68
2023/08/22 07:37:06;;;;;;;3.10;2.87;;;22.40;97.30;;;;;;4949544;28;20226;-68
2023/08/22 07:39:31;;;;;;;5.87;2.70;;;22.40;97.30;;;;;;4948843;28;20379;-74
2023/08/22 07:41:57;;;;;;;5.83;2.87;;;22.50;97.30;;;;;;4952119;28;20671;-68
2023/08/22 07:44:25;;;;;;;2.87;1.83;;;22.60;97.30;;;;;;4950255;28;20270;-67
2023/08/22 07:46:51;;;;;;;2.20;1.60;;;22.70;97.30;;;;;;4960530;28;20190;-67
2023/08/22 07:49:17;;;;;;;4.20;2.57;;;22.80;97.30;;;;;;4950764;28;20595;-67
2023/08/22 07:51:42;;;;;;;4.47;2.37;;;22.90;97.30;;;;;;4954696;28;20199;-67
2023/08/22 07:54:08;;;;;;;6.73;3.70;;;23.00;97.30;;;;;;4950473;28;20643;-67
2023/08/22 07:56:36;;;;;;;5.10;2.57;;;23.00;97.30;;;;;;4951925;28;20199;-67
2023/08/22 07:59:02;;;;;;;4.47;2.73;;;23.10;97.30;;;;;;4950415;28;20721;-67
2023/08/22 08:01:28;;;;;;;3.00;2.37;;;23.10;97.30;;;;;;4952046;28;20462;-70
2023/08/22 08:03:53;;;;;;;1.90;1.90;;;23.20;97.30;;;;;;4952114;28;20183;-67
2023/08/22 08:06:19;;;;;;;2.50;1.97;;;23.20;97.30;;;;;;4951560;28;20186;-66
2023/08/22 08:08:45;;;;;;;8.23;3.40;;;23.20;97.30;;;;;;4950456;28;20179;-68
2023/08/22 08:11:10;;;;;;;6.80;3.43;;;23.20;97.30;;;;;;4951684;28;20195;-67
2023/08/22 08:13:36;;;;;;;2.20;1.80;;;23.30;97.30;;;;;;4950472;28;20183;-67
2023/08/22 08:16:02;;;;;;;3.10;2.40;;;23.30;97.30;;;;;;4950404;28;20264;-67
2023/08/22 08:18:27;;;;;;;1.77;1.63;;;23.30;97.30;;;;;;4950036;28;20206;-68
2023/08/22 08:20:53;;;;;;;3.23;2.23;;;23.30;97.30;;;;;;4950185;28;20237;-68
2023/08/22 08:23:18;;;;;;;2.80;2.47;;;23.30;97.30;;;;;;4950490;28;20190;-68
2023/08/22 08:25:44;;;;;;;2.87;2.20;;;23.40;97.30;;;;;;4964902;28;20191;-66
2023/08/22 08:28:10;;;;;;;2.50;1.63;;;23.40;97.30;;;;;;4951221;28;20187;-67
2023/08/22 08:30:36;;;;;;;10.37;2.20;;;23.50;97.30;;;;;;4951238;28;20290;-66
2023/08/22 08:33:03;;;;;;;6.10;3.17;;;23.60;97.30;;;;;;4951927;28;20509;-66
2023/08/22 08:35:29;;;;;;;2.33;1.70;;;23.70;97.30;;;;;;4951698;28;20211;-67
2023/08/22 08:37:56;;;;;;;1.87;1.77;;;23.80;97.30;;;;;;4951571;28;20978;-66
2023/08/22 08:40:22;;;;;;;10.30;2.30;;;23.80;97.30;;;;;;4951362;28;20257;-67
2023/08/22 08:42:48;;;;;;;2.73;1.50;;;23.80;97.30;;;;;;4950958;28;20829;-66
2023/08/22 08:45:16;;;;;;;3.20;2.30;;;23.90;97.30;;;;;;4949569;28;20198;-67
2023/08/22 08:47:42;;;;;;;1.47;1.37;;;23.90;97.30;;;;;;4950442;28;20441;-66
2023/08/22 08:50:09;;;;;;;2.20;2.03;;;24.00;97.30;;;;;;4950314;28;20453;-66
2023/08/22 08:52:35;;;;;;;5.70;2.67;;;24.00;97.30;;;;;;4956567;28;20423;-67
2023/08/22 08:55:04;;;;;;;4.70;2.30;;;24.10;97.10;;;;;;4949214;28;20968;-66
2023/08/22 08:57:29;;;;;;;5.83;3.70;;;24.10;97.30;;;;;;4950869;28;21001;-66
2023/08/22 08:59:55;;;;;;;6.80;2.27;;;24.20;97.30;;;;;;4950646;28;20415;-66
2023/08/22 09:02:21;;;;;;;3.30;2.50;;;24.30;96.40;;;;;;4954411;28;20237;-69
2023/08/22 09:04:46;;;;;;;1.90;1.33;;;24.30;96.00;;;;;;4955489;28;20168;-66
2023/08/22 09:07:13;;;;;;;2.33;2.13;;;24.30;96.20;;;;;;4958622;28;20183;-66
2023/08/22 09:09:38;;;;;;;3.13;2.10;;;24.40;95.80;;;;;;4970529;28;20179;-68
2023/08/22 09:12:09;;;;;;;1.80;1.77;;;24.40;95.40;;;;;;4956136;28;20438;-66
2023/08/22 09:14:41;;;;;;;6.70;2.03;;;24.50;96.10;;;;;;4951426;28;20348;-66
2023/08/22 09:17:06;;;;;;;3.60;1.60;;;24.50;96.60;;;;;;4949184;28;20809;-70
2023/08/22 09:19:33;;;;;;;3.20;2.10;;;24.60;96.40;;;;;;4950154;28;20505;-66
2023/08/22 09:22:03;;;;;;;2.13;2.00;;;24.70;96.50;;;;;;4947869;28;20282;-66
2023/08/22 09:24:30;;;;;;;3.40;2.20;;;24.80;95.60;;;;;;4949568;28;20434;-67
2023/08/22 09:26:56;;;;;;;5.90;1.93;;;25.00;95.60;;;;;;4964756;28;20450;-67
2023/08/22 09:29:29;;;;;;;6.53;1.70;;;25.00;94.90;;;;;;4963992;28;20505;-66
2023/08/22 09:32:00;;;;;;;7.70;3.37;;;25.10;94.20;;;;;;4946278;28;20434;-67
2023/08/22 09:34:26;;;;;;;4.77;3.37;;;25.10;94.00;;;;;;4968467;28;20440;-65
2023/08/22 09:36:53;;;;;;;1.83;1.80;;;25.10;93.70;;;;;;4952099;28;20748;-66
2023/08/22 09:39:19;;;;;;;4.67;2.73;;;25.10;93.80;;;;;;4954287;28;20179;-67
2023/08/22 09:41:48;;;;;;;1.83;1.67;;;25.10;93.90;;;;;;4950375;28;20977;-67
2023/08/22 09:44:15;;;;;;;6.53;2.13;;;25.10;94.60;;;;;;4942346;28;20258;-65
2023/08/22 09:46:41;;;;;;;4.63;3.03;;;25.20;93.40;;;;;;4951794;28;20462;-66
2023/08/22 09:49:13;;;;;;;2.97;1.83;;;25.20;93.40;;;;;;4975668;28;20437;-65
2023/08/22 09:51:40;;;;;;;2.33;2.13;;;25.20;94.30;;;;;;4951068;28;20446;-67
2023/08/22 09:54:06;;;;;;;2.40;2.20;;;25.20;93.60;;;;;;4949922;28;20427;-67
2023/08/22 09:56:32;;;;;;;1.67;1.50;;;25.20;94.10;;;;;;4966150;28;20461;-67
2023/08/22 09:59:02;;;;;;;2.70;2.50;;;25.30;93.40;;;;;;4950107;28;20534;-67
2023/08/22 10:01:34;;;;;;;2.40;2.03;;;25.30;93.90;;;;;;4949841;28;20529;-68
2023/08/22 10:04:03;;;;;;;2.17;1.93;;;25.40;94.00;;;;;;4943713;28;20928;-67
2023/08/22 10:06:34;;;;;;;3.47;2.57;;;25.50;93.60;;;;;;4947146;28;20423;-69
2023/08/22 10:09:07;;;;;;;2.40;2.20;;;25.60;94.20;;;;;;4957408;28;20518;-67
2023/08/22 10:11:36;;;;;;;3.87;1.47;;;25.70;93.90;;;;;;4972636;28;20807;-67
2023/08/22 10:14:03;;;;;;;4.43;1.93;;;25.70;93.80;;;;;;4937453;28;20455;-66
2023/08/22 10:16:29;;;;;;;3.17;1.80;;;25.70;93.80;;;;;;4954459;28;20424;-68
2023/08/22 10:19:02;;;;;;;3.00;2.00;;;25.70;93.20;;;;;;4957679;28;20485;-67
2023/08/22 10:21:41;;;;;;;8.17;2.20;;;25.70;93.60;;;;;;4949553;28;20806;-67
2023/08/22 10:24:07;;;;;;;3.20;2.27;;;25.70;93.50;;;;;;4950473;28;20426;-67
2023/08/22 10:27:04;;;;;;;2.23;1.93;;;25.70;93.60;;;;;;4965886;28;20426;-67
2023/08/22 10:29:51;;;;;;;5.63;2.40;;;25.80;93.30;;;;;;4952992;28;20264;-67
2023/08/22 10:32:19;;;;;;;3.80;2.30;;;25.80;93.60;;;;;;4944382;28;20501;-66
2023/08/22 10:34:45;;;;;;;5.23;3.17;;;25.80;93.10;;;;;;4965190;28;20468;-66
2023/08/22 10:37:14;;;;;;;3.97;2.30;;;25.80;93.60;;;;;;4955126;28;20457;-67
2023/08/22 10:39:44;;;;;;;3.03;1.97;;;25.80;93.70;;;;;;4969073;28;20273;-66
2023/08/22 10:42:21;;;;;;;2.20;1.73;;;25.80;93.90;;;;;;4963320;28;20811;-67
2023/08/22 10:44:54;;;;;;;1.90;1.70;;;25.90;94.00;;;;;;4941142;28;20494;-67
2023/08/22 10:47:23;;;;;;;3.03;2.50;;;25.90;93.70;;;;;;4949586;28;20423;-66
2023/08/22 10:49:50;;;;;;;4.20;2.80;;;26.00;94.60;;;;;;4939986;28;20505;-66
2023/08/22 10:52:16;;;;;;;5.43;3.20;;;26.20;94.70;;;;;;4949809;28;20546;-66
2023/08/22 10:55:05;;;;;;;4.70;2.47;;;26.30;93.40;;;;;;4941591;28;20501;-66
2023/08/22 10:57:33;;;;;;;3.27;2.80;;;26.40;91.70;;;;;;4949717;28;20820;-66
2023/08/22 10:59:58;;;;;;;3.10;2.70;;;26.40;92.30;;;;;;4947876;28;20427;-66
2023/08/22 11:02:29;;;;;;;5.13;3.00;;;26.50;92.20;;;;;;4950321;28;20819;-71
2023/08/22 11:05:00;;;;;;;3.43;2.20;;;26.60;92.30;;;;;;4967423;28;20183;-65
2023/08/22 11:07:27;;;;;;;19.50;3.17;;;26.70;91.70;;;;;;4953144;28;20430;-66
2023/08/22 11:09:57;;;;;;;3.40;3.20;;;26.80;91.30;;;;;;4952777;28;20431;-66
2023/08/22 11:12:24;;;;;;;3.40;2.40;;;26.80;92.20;;;;;;4952840;28;20578;-64
2023/08/22 11:14:52;;;;;;;4.33;2.73;;;26.80;91.60;;;;;;4944520;28;20730;-64
2023/08/22 11:17:19;;;;;;;5.50;2.20;;;26.90;91.90;;;;;;4959202;28;20458;-64
2023/08/22 11:19:47;;;;;;;4.97;2.43;;;27.00;92.50;;;;;;4951132;28;20426;-65
2023/08/22 11:22:13;;;;;;;4.83;2.90;;;27.20;92.20;;;;;;4952553;28;20514;-65
2023/08/22 11:24:43;;;;;;;2.60;2.47;;;27.40;91.70;;;;;;4953068;28;20507;-65
2023/08/22 11:27:08;;;;;;;6.17;2.73;;;27.50;90.80;;;;;;4966804;28;20795;-65
2023/08/22 11:29:53;;;;;;;3.20;2.87;;;27.60;90.60;;;;;;4960369;28;20906;-65
2023/08/22 11:32:23;;;;;;;9.50;2.07;;;27.70;91.40;;;;;;4953392;28;20215;-65
2023/08/22 11:34:57;;;;;;;1.77;1.50;;;27.80;90.70;;;;;;4951054;28;20431;-65
2023/08/22 11:37:24;;;;;;;1.70;1.60;;;27.90;89.50;;;;;;4962586;28;20524;-65
2023/08/22 11:39:52;;;;;;;2.40;1.80;;;28.00;91.20;;;;;;4957479;28;20907;-64
2023/08/22 11:42:19;;;;;;;1.90;1.60;;;28.00;88.80;;;;;;4955181;28;20434;-63
2023/08/22 11:45:03;;;;;;;2.10;1.87;;;28.00;88.50;;;;;;4959499;28;20426;-63
2023/08/22 11:47:56;;;;;;;3.13;1.90;;;27.90;89.60;;;;;;4961326;28;20417;-63
2023/08/22 11:50:25;;;;;;;6.83;2.60;;;27.90;90.50;;;;;;4941797;28;20542;-64
2023/08/22 11:52:55;;;;;;;3.83;1.67;;;27.90;89.60;;;;;;4956924;28;20521;-63
2023/08/22 11:55:25;;;;;;;17.10;2.60;;;27.90;90.10;;;;;;4949120;28;20435;-64
2023/08/22 11:57:53;;;;;;;5.37;2.30;;;27.90;90.10;;;;;;4951194;28;20525;-63
2023/08/22 12:00:19;;;;;;;1.90;1.80;;;28.00;89.60;;;;;;4954967;28;20434;-65
2023/08/22 12:02:52;;;;;;;2.83;2.60;;;27.90;89.40;;;;;;4949046;28;20471;-64
2023/08/22 12:05:36;;;;;;;3.33;2.00;;;27.80;89.70;;;;;;4958094;28;20423;-64
2023/08/22 12:08:11;;;;;;;3.00;2.23;;;27.80;89.80;;;;;;4936371;28;20453;-63
2023/08/22 12:10:44;;;;;;;1.93;1.40;;;27.80;89.60;;;;;;4942531;28;20439;-64
2023/08/22 12:13:12;;;;;;;4.57;2.60;;;27.80;89.20;;;;;;4955104;28;20973;-63
2023/08/22 12:15:39;;;;;;;6.17;2.07;;;27.80;89.80;;;;;;4948837;28;20847;-64
2023/08/22 12:18:05;;;;;;;2.90;1.80;;;27.80;89.90;;;;;;4956590;28;20477;-63
2023/08/22 12:20:31;;;;;;;6.27;2.93;;;27.70;89.90;;;;;;4949025;28;20968;-63
2023/08/22 12:22:57;;;;;;;4.43;2.83;;;27.80;90.10;;;;;;4948851;28;20423;-63
2023/08/22 12:25:22;;;;;;;1.90;1.70;;;27.80;89.80;;;;;;4949247;28;20434;-63
2023/08/22 12:27:48;;;;;;;3.40;2.07;;;27.70;89.30;;;;;;4949162;28;20557;-63
2023/08/22 12:30:13;;;;;;;2.60;1.90;;;27.70;90.40;;;;;;4945405;28;20271;-65
2023/08/22 12:32:43;;;;;;;2.30;2.13;;;27.60;90.50;;;;;;4951665;28;20195;-64
2023/08/22 12:35:10;;;;;;;1.77;1.70;;;27.60;89.80;;;;;;4951840;28;20187;-65
2023/08/22 12:37:36;;;;;;;1.63;1.40;;;27.50;90.10;;;;;;4951381;28;20458;-64
2023/08/22 12:40:03;;;;;;;2.40;2.10;;;27.50;90.50;;;;;;4943897;28;20437;-64
2023/08/22 12:42:29;;;;;;;2.70;2.50;;;27.40;90.10;;;;;;4951691;28;20418;-64
2023/08/22 12:44:55;;;;;;;8.00;2.03;;;27.40;90.20;;;;;;4943803;28;20719;-64
2023/08/22 12:47:20;;;;;;;4.03;2.03;;;27.40;89.40;;;;;;4951768;28;20644;-63
2023/08/22 12:49:46;;;;;;;2.50;2.30;;;27.40;89.80;;;;;;4950319;28;20438;-63
2023/08/22 12:52:11;;;;;;;3.03;2.57;;;27.50;89.60;;;;;;4951386;28;20207;-64
2023/08/22 12:54:37;;;;;;;5.03;2.77;;;27.50;88.90;;;;;;4952130;28;20245;-63
2023/08/22 12:57:03;;;;;;;5.13;2.23;;;27.60;89.60;;;;;;4951401;28;20642;-63
2023/08/22 12:59:28;;;;;;;2.17;2.00;;;27.70;89.80;;;;;;4951700;28;20183;-63
2023/08/22 13:01:54;;;;;;;4.10;3.07;;;27.70;89.10;;;;;;4964200;28;20231;-63
2023/08/22 13:04:19;;;;;;;3.43;1.87;;;27.70;88.60;;;;;;4937877;28;20551;-63
2023/08/22 13:06:45;;;;;;;9.57;1.50;;;27.60;88.30;;;;;;4941959;28;20190;-64
2023/08/22 13:09:12;;;;;;;3.27;2.50;;;27.50;88.70;;;;;;4951534;28;20574;-63
2023/08/22 13:11:41;;;;;;;5.97;2.30;;;27.50;89.00;;;;;;4951189;28;20726;-59
2023/08/22 13:14:07;;;;;;;1.47;1.47;;;27.40;89.50;;;;;;4940081;28;20424;-61
2023/08/22 13:16:33;;;;;;;1.63;1.60;;;27.40;88.80;;;;;;4953001;28;20432;-63
2023/08/22 13:18:59;;;;;;;4.20;2.57;;;27.40;88.90;;;;;;4961954;28;20189;-62
2023/08/22 13:21:25;;;;;;;1.53;1.43;;;27.50;88.60;;;;;;4947794;28;20439;-61
2023/08/22 13:23:50;;;;;;;1.40;1.37;;;27.60;89.20;;;;;;4958516;28;20204;-61
2023/08/22 13:26:16;;;;;;;1.93;1.67;;;27.70;88.00;;;;;;4957786;28;20187;-61
2023/08/22 13:28:41;;;;;;;4.83;2.30;;;27.80;87.70;;;;;;4972917;28;20352;-61
2023/08/22 13:31:09;;;;;;;7.27;2.33;;;28.00;87.60;;;;;;4942445;28;20214;-63
2023/08/22 13:33:35;;;;;;;2.13;1.90;;;28.10;87.70;;;;;;4965643;28;20234;-62
2023/08/22 13:36:00;;;;;;;3.33;1.90;;;28.10;86.80;;;;;;4950767;28;20430;-62
2023/08/22 13:38:26;;;;;;;4.90;2.03;;;28.10;87.10;;;;;;4946259;28;20222;-62
2023/08/22 13:40:51;;;;;;;2.07;1.73;;;28.00;87.10;;;;;;4963357;28;20628;-62
2023/08/22 13:43:17;;;;;;;1.67;1.63;;;27.90;87.50;;;;;;4954258;28;20183;-61
2023/08/22 13:45:42;;;;;;;1.43;1.27;;;28.00;88.00;;;;;;4947510;28;20183;-61
2023/08/22 13:48:09;;;;;;;2.30;2.00;;;28.00;85.30;;;;;;4962377;28;20188;-62
2023/08/22 13:50:34;;;;;;;2.30;1.60;;;28.00;86.30;;;;;;4939457;28;20693;-62
2023/08/22 13:53:00;;;;;;;2.20;1.37;;;27.90;86.50;;;;;;4956216;28;20487;-62
2023/08/22 13:55:25;;;;;;;1.73;1.67;;;27.80;86.20;;;;;;4948711;28;20274;-62
2023/08/22 13:57:51;;;;;;;1.03;1.00;;;27.80;87.30;;;;;;4951087;28;20211;-63
2023/08/22 14:00:17;;;;;;;2.30;1.50;;;27.80;86.60;;;;;;4951752;28;20265;-64
2023/08/22 14:02:42;;;;;;;2.60;1.53;;;27.80;86.90;;;;;;4944061;28;20234;-63
2023/08/22 14:05:08;;;;;;;1.97;1.70;;;27.70;86.70;;;;;;4950741;28;20414;-63
2023/08/22 14:07:34;;;;;;;2.03;1.67;;;27.70;87.50;;;;;;4949235;28;20193;-63
2023/08/22 14:09:59;;;;;;;1.30;1.27;;;27.70;87.60;;;;;;4949121;28;20187;-63
2023/08/22 14:12:25;;;;;;;2.80;1.60;;;27.70;87.20;;;;;;4972302;28;20228;-63
2023/08/22 14:14:50;;;;;;;3.87;1.67;;;27.70;87.00;;;;;;4949840;28;20651;-63
2023/08/22 14:17:16;;;;;;;6.63;2.03;;;27.60;87.10;;;;;;4951076;28;20210;-62
2023/08/22 14:19:41;;;;;;;5.23;2.43;;;27.60;86.80;;;;;;4951341;28;20187;-62
2023/08/22 14:22:07;;;;;;;1.43;1.10;;;27.60;87.20;;;;;;4951316;28;20203;-62
2023/08/22 14:24:32;;;;;;;1.47;1.43;;;27.60;86.50;;;;;;4945406;28;20692;-63
2023/08/22 14:26:58;;;;;;;1.27;1.17;;;27.60;85.90;;;;;;4949472;28;20627;-63
2023/08/22 14:29:23;;;;;;;2.60;1.70;;;27.50;86.10;;;;;;4955878;28;20187;-63
2023/08/22 14:31:49;;;;;;;4.83;1.17;;;27.50;86.40;;;;;;4980045;28;20556;-62
2023/08/22 14:34:14;;;;;;;1.20;1.10;;;27.50;86.20;;;;;;4968444;28;20184;-62
2023/08/22 14:36:40;;;;;;;2.50;1.93;;;27.50;86.10;;;;;;4955565;28;20188;-63
2023/08/22 14:39:07;;;;;;;2.87;1.97;;;27.50;85.30;;;;;;4958476;28;20189;-63
2023/08/22 14:41:33;;;;;;;5.23;1.63;;;27.50;85.10;;;;;;4954629;28;20201;-63
2023/08/22 14:44:00;;;;;;;2.07;1.53;;;27.40;85.60;;;;;;4957209;28;20421;-63
2023/08/22 14:46:26;;;;;;;1.77;1.67;;;27.50;85.20;;;;;;4953901;28;20171;-63
2023/08/22 14:48:53;;;;;;;2.13;1.83;;;27.50;84.70;;;;;;4954593;28;20431;-63
2023/08/22 14:51:19;;;;;;;2.30;2.10;;;27.60;85.20;;;;;;4955931;28;20206;-63
2023/08/22 14:53:45;;;;;;;2.67;1.50;;;27.60;84.90;;;;;;4957730;28;20435;-63
2023/08/22 14:56:10;;;;;;;1.50;1.40;;;27.60;84.80;;;;;;4954238;28;20810;-63
2023/08/22 14:58:40;;;;;;;1.70;1.53;;;27.50;84.80;;;;;;4955900;28;20218;-62
2023/08/22 15:01:05;;;;;;;2.33;1.50;;;27.50;84.80;;;;;;4962678;28;20597;-63
2023/08/22 15:03:31;;;;;;;2.07;1.97;;;27.50;85.80;;;;;;4955126;28;20415;-61
2023/08/22 15:05:57;;;;;;;1.43;1.20;;;27.50;86.40;;;;;;4956482;28;20179;-63
2023/08/22 15:08:23;;;;;;;1.77;1.70;;;27.40;86.50;;;;;;4954474;28;20431;-63
2023/08/22 15:10:52;;;;;;;1.67;1.40;;;27.40;86.50;;;;;;4956547;28;20218;-63
2023/08/22 15:13:19;;;;;;;2.03;1.10;;;27.40;85.90;;;;;;4956576;28;20182;-62
2023/08/22 15:15:46;;;;;;;1.40;1.30;;;27.30;86.20;;;;;;4961341;28;20421;-63
2023/08/22 15:18:11;;;;;;;1.83;1.73;;;27.30;86.10;;;;;;4953701;28;20475;-63
2023/08/22 15:20:37;;;;;;;1.67;1.30;;;27.20;86.00;;;;;;4963071;28;20454;-62
2023/08/22 15:23:03;;;;;;;1.30;1.20;;;27.30;86.00;;;;;;4952981;28;20175;-63
2023/08/22 15:25:33;;;;;;;1.33;1.30;;;27.30;86.20;;;;;;4954959;28;20238;-63
2023/08/22 15:27:59;;;;;;;1.50;1.40;;;27.30;86.50;;;;;;4959605;28;20190;-63
2023/08/22 15:30:25;;;;;;;1.40;1.40;;;27.20;86.60;;;;;;4953385;28;20450;-63
2023/08/22 15:32:52;;;;;;;2.90;1.90;;;27.20;87.10;;;;;;4975783;28;20798;-62
2023/08/22 15:35:17;;;;;;;1.60;1.47;;;27.30;86.50;;;;;;4956270;28;20420;-63
2023/08/22 15:37:44;;;;;;;1.30;1.20;;;27.40;86.70;;;;;;4955792;28;20470;-63
2023/08/22 15:40:09;;;;;;;1.57;1.47;;;27.40;85.90;;;;;;4960106;28;20234;-63
2023/08/22 15:42:35;;;;;;;4.27;2.50;;;27.30;86.00;;;;;;4957594;28;20423;-63
2023/08/22 15:45:01;;;;;;;1.40;1.30;;;27.10;86.10;;;;;;4961111;28;20241;-63
2023/08/22 15:47:27;;;;;;;1.10;1.00;;;27.00;85.80;;;;;;4951583;28;20663;-63
2023/08/22 15:49:53;;;;;;;1.50;1.40;;;26.90;86.10;;;;;;4967466;28;20426;-63
2023/08/22 15:52:18;;;;;;;1.20;1.10;;;26.90;85.70;;;;;;4953734;28;20508;-63
2023/08/22 15:54:45;;;;;;;2.60;1.57;;;26.80;86.00;;;;;;4953289;28;20199;-64
2023/08/22 15:57:11;;;;;;;1.03;0.93;;;26.70;86.30;;;;;;4951409;28;20203;-63
2023/08/22 15:59:36;;;;;;;1.67;1.60;;;26.70;86.30;;;;;;4955249;28;20426;-63
2023/08/22 16:02:02;;;;;;;1.10;1.00;;;26.60;86.60;;;;;;4953463;28;20226;-63
2023/08/22 16:04:27;;;;;;;2.30;1.90;;;26.50;86.30;;;;;;4965966;28;20190;-63
2023/08/22 16:06:53;;;;;;;1.40;1.30;;;26.50;86.70;;;;;;4950934;28;20292;-63
2023/08/22 16:09:19;;;;;;;1.43;1.33;;;26.40;86.40;;;;;;4959308;28;20183;-63
2023/08/22 16:11:47;;;;;;;3.67;1.53;;;26.40;86.70;;;;;;4950731;28;20246;-63
2023/08/22 16:14:13;;;;;;;1.20;1.20;;;26.40;86.70;;;;;;4959372;28;20191;-63
2023/08/22 16:16:38;;;;;;;2.20;2.00;;;26.30;86.80;;;;;;4953888;28;20955;-63
2023/08/22 16:19:04;;;;;;;1.70;1.63;;;26.30;87.10;;;;;;4952656;28;20214;-63
2023/08/22 16:21:29;;;;;;;1.40;1.17;;;26.30;87.10;;;;;;4951777;28;20586;-63
2023/08/22 16:23:55;;;;;;;2.70;1.93;;;26.30;87.00;;;;;;4951471;28;20664;-63
2023/08/22 16:26:21;;;;;;;2.00;1.80;;;26.30;87.10;;;;;;4950190;28;20277;-63
2023/08/22 16:28:46;;;;;;;3.17;1.80;;;26.20;87.50;;;;;;4951510;28;20250;-63
2023/08/22 16:31:12;;;;;;;1.53;1.40;;;26.20;87.80;;;;;;4951512;28;20222;-63
2023/08/22 16:33:37;;;;;;;1.40;1.27;;;26.20;87.70;;;;;;4950432;28;20191;-62
2023/08/22 16:36:04;;;;;;;6.00;1.80;;;26.20;87.80;;;;;;4951415;28;20195;-63
2023/08/22 16:38:30;;;;;;;1.27;1.17;;;26.20;88.00;;;;;;4951570;28;20233;-63
2023/08/22 16:40:56;;;;;;;2.90;1.43;;;26.10;87.80;;;;;;4950172;28;20939;-62
2023/08/22 16:43:23;;;;;;;2.13;1.60;;;26.10;87.50;;;;;;4943554;28;20183;-63
2023/08/22 16:45:49;;;;;;;5.00;1.83;;;26.20;88.10;;;;;;4951072;28;20415;-63